Time;durP1;ratioP1;P1;durP2;ratioP2;P2;SDS_P1;SDS_P2;PMS_P1;PMS_P2;Temp;Humidity;BMP_temperature;BMP_pressure;BME280_temperature;BME280_humidity;BME280_pressure;Samples;Min_cycle;Max_cycle;Signal;HPM_P1;HPM_P2
2023/09/05 00:01:28;;;;;;;13.20;8.45;;;;;;;20.62;75.68;100567.03;4990344;28;20037;-81
2023/09/05 00:03:53;;;;;;;14.68;7.93;;;;;;;20.72;75.23;100568.59;4990096;28;20030;-83
2023/09/05 00:06:19;;;;;;;15.20;7.10;;;;;;;20.74;75.15;100561.91;4989741;28;20109;-83
2023/09/05 00:08:44;;;;;;;18.55;8.00;;;;;;;20.78;74.89;100562.38;4989976;28;20097;-82
2023/09/05 00:11:10;;;;;;;9.70;7.53;;;;;;;20.86;74.51;100556.78;4990208;28;20450;-83
2023/09/05 00:13:35;;;;;;;22.63;8.90;;;;;;;20.80;74.51;100541.13;4990263;28;20112;-84
2023/09/05 00:16:00;;;;;;;12.73;7.25;;;;;;;20.96;74.08;100546.38;4990461;28;20430;-83
2023/09/05 00:18:26;;;;;;;22.35;7.93;;;;;;;20.99;74.07;100537.78;4989819;28;20030;-84
2023/09/05 00:20:55;;;;;;;10.25;7.68;;;;;;;21.02;74.08;100538.25;4990124;28;20034;-83
2023/09/05 00:23:24;;;;;;;11.18;7.40;;;;;;;21.10;73.77;100538.16;4972573;28;20035;-83
2023/09/05 00:25:49;;;;;;;13.32;7.47;;;;;;;21.19;73.41;100538.88;4990236;28;20026;-82
2023/09/05 00:28:15;;;;;;;11.25;7.05;;;;;;;21.23;73.06;100531.97;4989968;28;20032;-83
2023/09/05 00:30:40;;;;;;;14.70;8.30;;;;;;;21.24;73.21;100528.19;4989643;28;20031;-85
2023/09/05 00:33:06;;;;;;;12.73;7.00;;;;;;;21.26;72.91;100537.03;4990151;28;20497;-82
2023/09/05 00:35:31;;;;;;;17.08;7.20;;;;;;;21.23;72.85;100514.69;4990908;28;20030;-83
2023/09/05 00:37:58;;;;;;;22.88;8.20;;;;;;;21.32;72.78;100544.47;5004980;28;20298;-82
2023/09/05 00:40:26;;;;;;;14.85;7.45;;;;;;;21.32;72.64;100533.53;5003610;28;20524;-83
2023/09/05 00:42:52;;;;;;;17.52;7.05;;;;;;;21.29;72.56;100544.00;4991057;28;20027;-83
2023/09/05 00:45:18;;;;;;;11.65;7.05;;;;;;;21.31;72.75;100531.84;4991052;28;20053;-84
2023/09/05 00:47:47;;;;;;;14.95;6.88;;;;;;;21.25;72.74;100520.84;4989921;28;20031;-82
2023/09/05 00:50:17;;;;;;;12.02;7.22;;;;;;;21.33;72.80;100548.06;4990031;28;20042;-81
2023/09/05 00:52:43;;;;;;;14.75;7.80;;;;;;;21.33;72.97;100540.69;4990301;28;20489;-83
2023/09/05 00:55:08;;;;;;;16.58;7.10;;;;;;;21.36;72.92;100550.41;4972003;28;20034;-83
2023/09/05 00:57:34;;;;;;;14.43;6.80;;;;;;;21.28;72.42;100534.97;4989412;28;20418;-83
2023/09/05 01:00:00;;;;;;;12.88;6.95;;;;;;;21.44;72.40;100558.47;4989667;28;20053;-82
2023/09/05 01:02:25;;;;;;;14.88;7.97;;;;;;;21.48;72.30;100559.75;4955230;28;20038;-83
2023/09/05 01:04:51;;;;;;;9.18;6.82;;;;;;;21.46;72.41;100553.66;4989559;28;20030;-85
2023/09/05 01:07:32;;;;;;;15.77;7.47;;;;;;;21.57;72.64;100569.53;4989110;28;20035;-81
2023/09/05 01:10:10;;;;;;;18.23;8.18;;;;;;;21.57;73.09;100569.53;4990125;28;20390;-82
2023/09/05 01:12:36;;;;;;;16.55;7.47;;;;;;;21.49;73.14;100528.63;4989356;28;20038;-83
2023/09/05 01:15:01;;;;;;;20.08;6.60;;;;;;;21.69;72.72;100541.41;4989705;28;20038;-82
2023/09/05 01:17:27;;;;;;;17.42;7.10;;;;;;;21.64;71.72;100538.44;4992242;28;20057;-83
2023/09/05 01:19:56;;;;;;;13.07;6.68;;;;;;;21.67;71.61;100546.25;4993473;28;20407;-83
2023/09/05 01:22:51;;;;;;;10.63;6.78;;;;;;;21.75;70.92;100544.41;4993545;28;20090;-84
2023/09/05 01:25:17;;;;;;;24.65;8.07;;;;;;;21.74;70.64;100554.53;4993433;28;20034;-80
2023/09/05 01:27:42;;;;;;;12.05;6.88;;;;;;;21.67;70.74;100559.09;4993049;28;20038;-83
2023/09/05 01:30:09;;;;;;;16.05;7.50;;;;;;;21.55;70.25;100538.78;4993199;28;20038;-82
2023/09/05 01:32:34;;;;;;;16.40;6.47;;;;;;;21.70;70.05;100554.06;4993548;28;20046;-83
2023/09/05 01:35:00;;;;;;;14.05;7.30;;;;;;;21.57;70.34;100553.97;4992639;28;20069;-82
2023/09/05 01:37:25;;;;;;;14.52;6.97;;;;;;;21.49;70.15;100540.44;4992756;28;20034;-82
2023/09/05 01:39:51;;;;;;;15.10;8.27;;;;;;;21.51;70.09;100549.28;4993030;28;20026;-83
2023/09/05 01:42:16;;;;;;;9.00;6.13;;;;;;;21.54;70.45;100553.50;4993203;28;20027;-85
2023/09/05 01:44:42;;;;;;;15.70;8.00;;;;;;;21.33;71.47;100546.16;4993224;28;20030;-83
2023/09/05 01:47:07;;;;;;;19.38;7.57;;;;;;;21.24;72.76;100563.75;4992651;28;20506;-84
2023/09/05 01:49:33;;;;;;;23.42;8.00;;;;;;;21.21;73.16;100568.75;4993004;28;20027;-84
2023/09/05 01:51:58;;;;;;;13.00;8.35;;;;;;;21.06;73.88;100546.91;4992505;28;20022;-83
2023/09/05 01:54:24;;;;;;;10.60;7.10;;;;;;;21.12;74.54;100573.53;4992431;28;20422;-83
2023/09/05 01:56:50;;;;;;;15.75;7.35;;;;;;;21.00;74.70;100561.38;4993011;28;20453;-83
2023/09/05 01:59:19;;;;;;;11.70;6.95;;;;;;;21.10;74.62;100575.59;4993063;28;20058;-84
2023/09/05 02:01:45;;;;;;;12.23;7.68;;;;;;;21.07;74.54;100595.09;4976246;28;20034;-83
2023/09/05 02:04:10;;;;;;;15.05;7.28;;;;;;;21.05;74.53;100578.03;4992873;28;20030;-84
2023/09/05 02:06:36;;;;;;;34.10;8.05;;;;;;;21.04;74.10;100590.00;4993026;28;20042;-83
2023/09/05 02:09:01;;;;;;;23.98;6.93;;;;;;;20.98;73.82;100601.72;4992965;28;20329;-82
2023/09/05 02:11:26;;;;;;;10.40;6.85;;;;;;;20.89;73.04;100591.94;4992672;28;20410;-82
2023/09/05 02:13:52;;;;;;;10.45;7.28;;;;;;;20.94;72.15;100605.91;4992461;28;20483;-82
2023/09/05 02:16:20;;;;;;;14.98;7.72;;;;;;;20.87;72.35;100610.44;4992551;28;20026;-83
2023/09/05 02:18:47;;;;;;;15.07;7.05;;;;;;;20.66;72.41;100586.63;4992805;28;20034;-80
2023/09/05 02:21:13;;;;;;;20.42;8.00;;;;;;;20.74;72.56;100615.72;4992606;28;20030;-82
2023/09/05 02:23:38;;;;;;;20.73;7.75;;;;;;;20.73;72.45;100614.03;4999927;28;20034;-81
2023/09/05 02:26:04;;;;;;;16.10;7.63;;;;;;;20.66;72.74;100632.22;5014687;28;20033;-83
2023/09/05 02:28:29;;;;;;;12.05;6.93;;;;;;;20.66;72.50;100624.03;4995194;28;20026;-83
2023/09/05 02:30:55;;;;;;;19.23;7.80;;;;;;;20.70;72.58;100626.22;4995306;28;20027;-80
2023/09/05 02:33:22;;;;;;;15.20;7.07;;;;;;;20.75;72.64;100615.53;4994208;28;20049;-82
2023/09/05 02:35:48;;;;;;;15.95;7.03;;;;;;;20.83;72.46;100626.34;4956559;28;20053;-81
2023/09/05 02:38:14;;;;;;;9.23;6.32;;;;;;;20.88;72.20;100625.81;5017043;28;20030;-80
2023/09/05 02:40:46;;;;;;;14.55;7.22;;;;;;;20.92;72.18;100633.41;5017039;28;20267;-81
2023/09/05 02:43:13;;;;;;;11.82;6.75;;;;;;;21.04;71.85;100641.97;5003657;28;20509;-83
2023/09/05 02:45:39;;;;;;;23.77;7.00;;;;;;;21.05;71.66;100638.19;5000952;28;20117;-84
2023/09/05 02:48:05;;;;;;;12.10;6.80;;;;;;;21.18;71.21;100643.88;5001868;28;20072;-83
2023/09/05 02:50:30;;;;;;;15.25;6.60;;;;;;;21.19;70.72;100640.09;4994010;28;20521;-83
2023/09/05 02:52:56;;;;;;;19.58;5.78;;;;;;;21.26;70.52;100638.25;4991868;28;20058;-84
2023/09/05 02:55:21;;;;;;;10.07;6.25;;;;;;;21.26;70.37;100638.25;4991552;28;20028;-84
2023/09/05 02:57:47;;;;;;;14.93;6.10;;;;;;;21.13;70.49;100602.53;4991544;28;20553;-83
2023/09/05 03:00:13;;;;;;;13.85;6.25;;;;;;;21.20;70.27;100602.63;4991342;28;21040;-83
2023/09/05 03:02:40;;;;;;;12.20;6.32;;;;;;;21.40;69.89;100637.38;4956677;28;20034;-84
2023/09/05 03:05:06;;;;;;;18.15;5.88;;;;;;;21.41;70.06;100619.91;4991504;28;20034;-85
2023/09/05 03:07:32;;;;;;;13.13;6.13;;;;;;;21.25;71.74;100595.56;4974175;28;20030;-81
2023/09/05 03:09:57;;;;;;;19.73;6.80;;;;;;;21.30;73.86;100634.09;4991431;28;20105;-82
2023/09/05 03:12:23;;;;;;;12.60;6.93;;;;;;;21.18;75.79;100638.41;4991519;28;20525;-82
2023/09/05 03:14:48;;;;;;;21.27;6.63;;;;;;;21.07;77.31;100649.78;4992445;28;20375;-82
2023/09/05 03:17:14;;;;;;;22.88;7.13;;;;;;;20.91;78.72;100647.28;4991582;28;20565;-83
2023/09/05 03:19:40;;;;;;;21.30;6.50;;;;;;;20.82;79.84;100651.16;4991056;28;20038;-82
2023/09/05 03:22:06;;;;;;;15.73;7.65;;;;;;;20.44;81.21;100632.16;4991436;28;20724;-78
2023/09/05 03:24:35;;;;;;;13.38;6.85;;;;;;;20.04;84.42;100654.38;4991172;28;20555;-82
2023/09/05 03:27:02;;;;;;;20.58;7.63;;;;;;;19.70;86.82;100656.72;4991798;28;20029;-82
2023/09/05 03:29:27;;;;;;;16.10;8.48;;;;;;;19.43;89.06;100647.22;4990753;28;20556;-82
2023/09/05 03:31:53;;;;;;;14.60;8.32;;;;;;;19.30;90.88;100638.75;4991361;28;20022;-82
2023/09/05 03:34:19;;;;;;;18.45;9.48;;;;;;;19.19;90.71;100629.13;4990650;28;20064;-82
2023/09/05 03:36:44;;;;;;;19.90;10.18;;;;;;;19.18;91.82;100632.88;4991263;28;20053;-83
2023/09/05 03:39:10;;;;;;;14.65;8.82;;;;;;;19.15;91.90;100622.31;4991491;28;20030;-82
2023/09/05 03:41:35;;;;;;;21.85;8.90;;;;;;;19.03;93.20;100615.59;4991000;28;20505;-83
2023/09/05 03:44:01;;;;;;;28.30;11.52;;;;;;;18.95;92.61;100611.03;4990823;28;20494;-83
2023/09/05 03:46:26;;;;;;;18.92;8.50;;;;;;;19.07;91.95;100621.53;4990200;28;20116;-83
2023/09/05 03:48:53;;;;;;;14.25;9.90;;;;;;;19.03;91.60;100618.31;4990245;28;20486;-83
2023/09/05 03:51:19;;;;;;;15.25;9.02;;;;;;;19.08;91.18;100632.25;4990671;28;20026;-82
2023/09/05 03:53:44;;;;;;;25.38;10.45;;;;;;;18.78;90.79;100576.72;4990521;28;20019;-83
2023/09/05 03:56:10;;;;;;;14.63;8.93;;;;;;;18.98;92.01;100615.28;4990670;28;20107;-82
2023/09/05 03:58:37;;;;;;;17.25;8.35;;;;;;;19.11;92.51;100626.44;4990672;28;20033;-82
2023/09/05 04:01:03;;;;;;;18.08;9.15;;;;;;;19.06;92.76;100623.41;4990713;28;20050;-85
2023/09/05 04:03:29;;;;;;;17.90;8.32;;;;;;;19.04;92.72;100628.19;4990530;28;20089;-83
2023/09/05 04:05:55;;;;;;;21.00;8.70;;;;;;;19.05;93.18;100627.16;4973363;28;20462;-83
2023/09/05 04:08:20;;;;;;;16.27;8.02;;;;;;;19.14;93.08;100625.25;4974039;28;20061;-83
2023/09/05 04:10:45;;;;;;;16.15;8.00;;;;;;;19.11;90.52;100610.06;4997640;28;20030;-81
2023/09/05 04:13:11;;;;;;;16.75;8.57;;;;;;;19.18;89.63;100611.06;5007089;28;20038;-82
2023/09/05 04:15:36;;;;;;;28.90;8.93;;;;;;;19.21;88.84;100621.59;4991815;28;20154;-82
2023/09/05 04:18:02;;;;;;;14.18;7.57;;;;;;;19.15;88.76;100608.69;4990798;28;20483;-82
2023/09/05 04:20:28;;;;;;;23.63;8.50;;;;;;;19.17;87.81;100625.75;4990271;28;20093;-83
2023/09/05 04:22:53;;;;;;;11.98;7.00;;;;;;;19.13;87.36;100635.31;4990828;28;20121;-82
2023/09/05 04:25:19;;;;;;;19.73;8.20;;;;;;;19.20;85.53;100647.19;4989865;28;20100;-83
2023/09/05 04:27:45;;;;;;;20.75;8.25;;;;;;;19.12;85.51;100655.41;4989953;28;20030;-82
2023/09/05 04:30:12;;;;;;;29.85;8.60;;;;;;;19.20;86.16;100679.06;4972159;28;20031;-80
2023/09/05 04:32:38;;;;;;;14.68;8.98;;;;;;;19.08;87.57;100643.16;4990058;28;20030;-85
2023/09/05 04:35:05;;;;;;;10.27;7.10;;;;;;;19.02;89.09;100652.03;4990352;28;20033;-85
2023/09/05 04:37:31;;;;;;;12.32;8.05;;;;;;;18.65;90.47;100614.63;4990599;28;20038;-87
2023/09/05 04:39:57;;;;;;;18.33;9.65;;;;;;;18.58;93.14;100637.28;4994598;28;20023;-85
2023/09/05 04:42:25;;;;;;;22.00;9.70;;;;;;;18.35;94.86;100616.19;5001630;28;20457;-85
2023/09/05 04:44:51;;;;;;;18.67;10.02;;;;;;;18.40;96.25;100638.34;4990156;28;20031;-87
2023/09/05 04:47:29;;;;;;;11.80;8.70;;;;;;;18.24;96.94;100635.66;4990027;28;20053;-85
2023/09/05 04:49:57;;;;;;;17.05;8.82;;;;;;;18.16;97.10;100619.34;4990512;28;20034;-85
2023/09/05 04:52:26;;;;;;;13.43;8.30;;;;;;;18.27;97.01;100621.69;4991908;28;20033;-84
2023/09/05 04:54:53;;;;;;;12.50;8.65;;;;;;;18.33;95.36;100620.13;4994016;28;20026;-84
2023/09/05 04:57:19;;;;;;;16.35;8.60;;;;;;;18.28;94.97;100601.63;4994398;28;20034;-86
2023/09/05 04:59:47;;;;;;;17.75;8.63;;;;;;;18.38;94.62;100612.28;4993804;28;20054;-85
2023/09/05 05:02:16;;;;;;;13.63;7.40;;;;;;;18.29;93.71;100576.06;4994344;28;20470;-82
2023/09/05 05:04:42;;;;;;;17.67;9.05;;;;;;;18.42;94.09;100570.91;4993837;28;20058;-87
2023/09/05 05:07:08;;;;;;;18.55;8.55;;;;;;;18.45;93.98;100576.00;4993931;28;20038;-84
2023/09/05 05:09:34;;;;;;;10.90;7.40;;;;;;;18.44;92.54;100563.41;4994411;28;20038;-86
2023/09/05 05:12:00;;;;;;;23.15;8.75;;;;;;;18.44;92.54;100568.00;4999940;28;20042;-89
2023/09/05 05:14:26;;;;;;;18.05;7.80;;;;;;;18.58;92.49;100585.53;4976856;28;20118;-86
2023/09/05 05:16:53;;;;;;;18.42;9.57;;;;;;;18.60;90.82;100558.94;4993704;28;20113;-87
2023/09/05 05:19:23;;;;;;;17.70;8.00;;;;;;;18.70;89.53;100589.53;4976112;28;20034;-86
2023/09/05 05:21:49;;;;;;;19.85;7.45;;;;;;;18.73;89.46;100597.34;4994277;28;20038;-87
2023/09/05 05:24:15;;;;;;;11.60;6.70;;;;;;;18.76;88.60;100600.59;4994274;28;20053;-87
2023/09/05 05:26:41;;;;;;;18.98;6.45;;;;;;;18.92;88.66;100607.81;4994409;28;20061;-87
2023/09/05 05:29:06;;;;;;;17.90;6.28;;;;;;;18.97;87.79;100597.22;4977555;28;20041;-86
2023/09/05 05:31:36;;;;;;;28.35;7.13;;;;;;;18.80;87.20;100573.84;4978045;28;20026;-87
2023/09/05 05:34:02;;;;;;;14.02;5.90;;;;;;;18.96;87.15;100590.06;4994645;28;20057;-87
2023/09/05 05:36:29;;;;;;;9.70;5.97;;;;;;;19.12;87.39;100617.22;4995401;28;20061;-87
2023/09/05 05:39:03;;;;;;;11.57;6.55;;;;;;;19.25;86.52;100631.13;4996520;28;20046;-87
2023/09/05 05:41:29;;;;;;;15.93;6.75;;;;;;;19.19;86.75;100634.56;4997956;28;20037;-87
2023/09/05 05:43:55;;;;;;;9.93;6.32;;;;;;;19.26;86.13;100634.72;5000369;28;20058;-87
2023/09/05 05:46:21;;;;;;;19.48;6.88;;;;;;;19.24;84.55;100621.25;4995790;28;20084;-87
2023/09/05 05:48:47;;;;;;;11.75;5.88;;;;;;;19.46;84.13;100655.91;4996387;28;20460;-86
2023/09/05 05:51:15;;;;;;;14.77;7.43;;;;;;;19.42;84.52;100640.91;4998824;28;20479;-87
2023/09/05 05:53:45;;;;;;;28.30;6.15;;;;;;;19.55;84.89;100648.50;4998068;28;20027;-88
2023/09/05 05:56:10;;;;;;;11.18;6.07;;;;;;;19.77;84.50;100668.63;4993017;28;20053;-86
2023/09/05 05:58:36;;;;;;;10.52;6.75;;;;;;;19.92;83.75;100680.44;5004065;28;20034;-86
2023/09/05 06:01:02;;;;;;;9.60;5.78;;;;;;;19.90;82.89;100667.00;4993820;28;20052;-86
2023/09/05 06:03:28;;;;;;;14.40;5.53;;;;;;;20.05;81.95;100692.44;4994725;28;20109;-88
2023/09/05 06:05:57;;;;;;;17.60;5.68;;;;;;;20.07;81.74;100684.06;4991458;28;20030;-86
2023/09/05 06:08:22;;;;;;;22.42;6.95;;;;;;;20.09;81.60;100715.59;4993036;28;20475;-84
2023/09/05 06:10:49;;;;;;;23.58;6.03;;;;;;;20.09;80.12;100720.22;4992326;28;20106;-82
2023/09/05 06:13:14;;;;;;;10.35;6.05;;;;;;;20.12;80.22;100719.84;4992112;28;20045;-83
2023/09/05 06:15:40;;;;;;;12.60;5.93;;;;;;;19.97;79.18;100683.47;4992447;28;20110;-83
2023/09/05 06:18:08;;;;;;;14.43;5.47;;;;;;;20.16;78.55;100743.03;4987622;28;20500;-82
2023/09/05 06:20:33;;;;;;;12.00;6.88;;;;;;;19.80;77.82;100688.22;4972698;28;20038;-82
2023/09/05 06:22:59;;;;;;;23.40;5.70;;;;;;;20.12;78.07;100769.00;4971780;28;20472;-82
2023/09/05 06:25:24;;;;;;;13.57;6.18;;;;;;;20.09;78.12;100763.91;4985683;28;20089;-81
2023/09/05 06:27:50;;;;;;;19.10;6.05;;;;;;;20.06;79.00;100761.53;4983377;28;20089;-82
2023/09/05 06:30:16;;;;;;;13.30;5.57;;;;;;;19.90;79.07;100748.03;4972039;28;20034;-82
2023/09/05 06:32:42;;;;;;;16.92;5.40;;;;;;;19.96;80.71;100771.88;4991271;28;20026;-82
2023/09/05 06:35:09;;;;;;;15.63;6.25;;;;;;;19.80;80.62;100747.41;4989732;28;20061;-85
2023/09/05 06:37:36;;;;;;;19.23;6.60;;;;;;;19.92;81.39;100801.41;4991643;28;20034;-84
2023/09/05 06:40:09;;;;;;;17.33;5.55;;;;;;;19.86;83.55;100773.97;4996307;28;20026;-83
2023/09/05 06:42:39;;;;;;;9.68;5.90;;;;;;;19.79;84.02;100778.47;4994051;28;20034;-83
2023/09/05 06:45:05;;;;;;;23.15;6.28;;;;;;;19.75;84.07;100777.13;4991279;28;20139;-84
2023/09/05 06:47:31;;;;;;;13.27;6.50;;;;;;;19.79;85.80;100794.84;4992559;28;20031;-83
2023/09/05 06:49:56;;;;;;;23.58;6.53;;;;;;;19.80;85.76;100802.84;4974225;28;20061;-82
2023/09/05 06:52:22;;;;;;;24.77;8.00;;;;;;;19.76;86.47;100795.19;4991686;28;20041;-84
2023/09/05 06:54:47;;;;;;;19.77;7.45;;;;;;;19.66;87.27;100775.50;4974428;28;20030;-85
2023/09/05 06:57:15;;;;;;;14.90;7.30;;;;;;;19.82;87.06;100798.06;4992602;28;20019;-85
2023/09/05 06:59:40;;;;;;;21.75;7.25;;;;;;;19.69;88.21;100775.13;4992106;28;20085;-84
2023/09/05 07:02:06;;;;;;;14.43;6.50;;;;;;;19.78;89.06;100782.25;4991665;28;20168;-85
2023/09/05 07:04:31;;;;;;;23.05;7.22;;;;;;;19.64;90.64;100769.34;4993057;28;20505;-85
2023/09/05 07:06:58;;;;;;;16.30;7.53;;;;;;;19.58;93.35;100783.72;4958892;28;20030;-86
2023/09/05 07:09:23;;;;;;;16.48;6.63;;;;;;;19.54;96.06;100784.06;4993033;28;20033;-86
2023/09/05 07:11:49;;;;;;;20.77;8.82;;;;;;;19.34;98.48;100758.22;4992587;28;20026;-85
2023/09/05 07:14:14;;;;;;;19.13;8.15;;;;;;;19.59;99.40;100805.38;4970415;28;20129;-87
2023/09/05 07:16:40;;;;;;;28.15;9.10;;;;;;;19.26;99.95;100765.63;4972027;28;20054;-87
2023/09/05 07:19:05;;;;;;;22.05;11.15;;;;;;;19.37;99.85;100787.03;4988574;28;20085;-87
2023/09/05 07:21:31;;;;;;;48.30;16.05;;;;;;;19.35;99.61;100773.59;4993498;28;20042;-87
2023/09/05 07:23:56;;;;;;;27.33;11.48;;;;;;;19.21;100.00;100752.50;4994677;28;20150;-87
2023/09/05 07:26:22;;;;;;;32.55;13.68;;;;;;;19.31;100.00;100766.78;4997162;28;20086;-87
2023/09/05 07:28:47;;;;;;;22.73;10.52;;;;;;;19.37;100.00;100757.88;4998377;28;20043;-85
2023/09/05 07:31:14;;;;;;;31.73;11.20;;;;;;;19.37;100.00;100755.16;4997276;28;20038;-87
2023/09/05 07:33:41;;;;;;;27.33;9.45;;;;;;;19.57;100.00;100762.94;4977990;28;20038;-86
2023/09/05 07:36:06;;;;;;;32.90;12.50;;;;;;;19.47;100.00;100753.09;4972636;28;20133;-87
2023/09/05 07:38:32;;;;;;;28.70;12.68;;;;;;;19.45;100.00;100760.59;4954962;28;20658;-87
2023/09/05 07:41:04;;;;;;;29.33;10.00;;;;;;;19.36;100.00;100722.59;4971428;28;20042;-86
2023/09/05 07:43:30;;;;;;;17.98;8.75;;;;;;;19.59;100.00;100747.22;4972132;28;20049;-86
2023/09/05 07:45:56;;;;;;;21.58;7.72;;;;;;;19.61;100.00;100742.41;4978440;28;20042;-87
2023/09/05 07:48:21;;;;;;;26.42;8.13;;;;;;;19.51;100.00;100716.22;4978564;28;20026;-87
2023/09/05 07:50:47;;;;;;;19.35;7.50;;;;;;;19.62;100.00;100741.41;4992263;28;20041;-86
2023/09/05 07:53:13;;;;;;;14.05;6.95;;;;;;;19.26;100.00;100665.56;4974260;28;20133;-86
2023/09/05 07:55:39;;;;;;;22.58;7.60;;;;;;;19.41;100.00;100690.22;4991572;28;20048;-88
2023/09/05 07:58:04;;;;;;;16.15;8.50;;;;;;;19.65;100.00;100720.06;4973464;28;20030;-87
2023/09/05 08:00:30;;;;;;;24.70;7.60;;;;;;;19.47;100.00;100687.63;4991586;28;20058;-88
2023/09/05 08:02:55;;;;;;;20.90;7.20;;;;;;;19.70;100.00;100700.41;4991724;28;20034;-87
2023/09/05 08:05:21;;;;;;;14.65;6.65;;;;;;;19.78;100.00;100703.09;4991807;28;20030;-87
2023/09/05 08:07:47;;;;;;;27.08;6.60;;;;;;;19.87;100.00;100705.56;4991673;28;20562;-86
2023/09/05 08:10:13;;;;;;;16.77;7.00;;;;;;;20.10;99.27;100741.03;4991834;28;20093;-85
2023/09/05 08:12:38;;;;;;;12.05;6.50;;;;;;;20.13;99.10;100729.75;4990450;28;20027;-85
2023/09/05 08:15:06;;;;;;;15.25;7.63;;;;;;;20.24;98.13;100740.25;4990026;28;20109;-85
2023/09/05 08:17:32;;;;;;;16.42;7.65;;;;;;;20.16;96.69;100714.84;4972390;28;20028;-86
2023/09/05 08:19:58;;;;;;;18.08;6.85;;;;;;;20.35;96.58;100747.16;4991353;28;20115;-86
2023/09/05 08:22:24;;;;;;;18.33;7.75;;;;;;;20.26;96.95;100716.34;4923326;28;20115;-86
2023/09/05 08:24:51;;;;;;;16.13;6.72;;;;;;;20.34;96.97;100723.59;4990722;28;20030;-86
2023/09/05 08:27:17;;;;;;;18.35;7.13;;;;;;;20.45;95.59;100729.50;4989895;28;20026;-86
2023/09/05 08:29:42;;;;;;;22.77;6.43;;;;;;;20.65;93.83;100754.38;4989817;28;20026;-86
2023/09/05 08:32:08;;;;;;;22.15;6.47;;;;;;;20.63;94.23;100740.91;4991065;28;20018;-86
2023/09/05 08:34:34;;;;;;;19.98;8.57;;;;;;;20.83;94.64;100737.59;4990971;28;20038;-85
2023/09/05 08:36:59;;;;;;;30.83;9.25;;;;;;;20.87;93.03;100720.63;4972748;28;20053;-85
2023/09/05 08:39:26;;;;;;;21.65;8.63;;;;;;;20.86;88.95;100702.53;4995073;28;20034;-85
2023/09/05 08:41:52;;;;;;;22.10;8.90;;;;;;;20.98;88.58;100705.63;4993474;28;20050;-86
2023/09/05 08:44:18;;;;;;;21.67;7.38;;;;;;;21.12;89.20;100707.53;4971226;28;20046;-83
2023/09/05 08:46:46;;;;;;;18.55;8.13;;;;;;;21.24;88.19;100703.28;4989563;28;20022;-86
2023/09/05 08:49:12;;;;;;;14.80;6.63;;;;;;;21.48;87.39;100705.66;4990346;28;20041;-84
2023/09/05 08:51:39;;;;;;;25.67;8.65;;;;;;;21.69;84.85;100716.63;4989520;28;20105;-83
2023/09/05 08:54:06;;;;;;;25.20;7.03;;;;;;;21.79;84.35;100710.00;4989429;28;20115;-81
2023/09/05 08:56:32;;;;;;;14.48;6.07;;;;;;;21.89;83.02;100716.88;4989527;28;20030;-84
2023/09/05 08:59:00;;;;;;;35.60;11.68;;;;;;;22.06;84.12;100717.44;4989149;28;20456;-82
2023/09/05 09:01:29;;;;;;;39.35;7.63;;;;;;;22.19;80.63;100712.09;4988907;28;20026;-83
2023/09/05 09:03:55;;;;;;;11.10;6.20;;;;;;;22.22;80.85;100706.22;4971987;28;20549;-82
2023/09/05 09:06:24;;;;;;;19.75;6.57;;;;;;;22.39;80.86;100706.75;4954457;28;20039;-82
2023/09/05 09:08:50;;;;;;;19.67;6.78;;;;;;;22.46;79.52;100705.75;4989154;28;20062;-83
2023/09/05 09:11:19;;;;;;;12.02;6.15;;;;;;;22.64;78.52;100738.16;4989152;28;20058;-84
2023/09/05 09:13:47;;;;;;;12.55;6.05;;;;;;;22.68;79.20;100740.34;4989479;28;20046;-82
2023/09/05 09:16:17;;;;;;;22.10;7.70;;;;;;;22.62;78.25;100730.13;4971669;28;20041;-83
2023/09/05 09:18:45;;;;;;;23.83;5.70;;;;;;;22.68;77.78;100751.31;4989485;28;20471;-84
2023/09/05 09:21:17;;;;;;;14.55;6.05;;;;;;;22.61;76.40;100741.28;4989474;28;20104;-83
2023/09/05 09:23:44;;;;;;;25.10;7.45;;;;;;;22.49;76.66;100719.06;4989341;28;20041;-84
2023/09/05 09:26:10;;;;;;;23.73;8.43;;;;;;;22.47;76.41;100715.69;4989145;28;20125;-84
2023/09/05 09:28:37;;;;;;;19.48;7.07;;;;;;;22.54;75.96;100737.63;4989868;28;20030;-84
2023/09/05 09:31:05;;;;;;;17.75;6.85;;;;;;;22.68;75.42;100772.38;4996483;28;20018;-85
2023/09/05 09:33:32;;;;;;;27.58;9.25;;;;;;;22.55;74.66;100762.13;4981934;28;20037;-85
2023/09/05 09:36:00;;;;;;;27.42;8.50;;;;;;;22.52;74.91;100762.53;4990810;28;20125;-84
2023/09/05 09:38:27;;;;;;;16.58;8.50;;;;;;;22.69;74.53;100785.88;4991936;28;20030;-84
2023/09/05 09:40:55;;;;;;;25.30;8.23;;;;;;;22.60;74.54;100767.84;4992805;28;20084;-83
2023/09/05 09:43:21;;;;;;;30.52;8.30;;;;;;;22.76;74.22;100792.28;4993330;28;20030;-83
2023/09/05 09:45:47;;;;;;;59.45;9.88;;;;;;;22.66;74.90;100786.28;4993187;28;20033;-84
2023/09/05 09:48:15;;;;;;;31.08;9.00;;;;;;;22.76;75.20;100797.75;4993157;28;20031;-84
2023/09/05 09:50:43;;;;;;;49.00;9.07;;;;;;;22.82;74.42;100800.75;4992697;28;20034;-86
2023/09/05 09:53:15;;;;;;;60.03;11.52;;;;;;;22.89;74.21;100805.25;4992907;28;20034;-84
2023/09/05 09:55:44;;;;;;;28.20;10.03;;;;;;;22.84;74.56;100802.25;4992930;28;20661;-85
2023/09/05 09:58:14;;;;;;;29.95;8.90;;;;;;;22.81;74.05;100785.34;4993151;28;20034;-85
2023/09/05 10:00:45;;;;;;;43.25;9.18;;;;;;;23.00;74.11;100804.66;4993865;28;20050;-84
2023/09/05 10:03:13;;;;;;;25.85;9.95;;;;;;;22.98;74.16;100797.69;4977203;28;20071;-84
2023/09/05 10:05:41;;;;;;;12.57;6.80;;;;;;;23.02;73.75;100799.00;4992571;28;20061;-85
2023/09/05 10:08:11;;;;;;;13.95;7.45;;;;;;;23.09;75.42;100808.09;4974794;28;20038;-85
2023/09/05 10:10:41;;;;;;;16.60;7.78;;;;;;;22.99;75.35;100777.44;4992690;28;20032;-85
2023/09/05 10:13:10;;;;;;;19.17;7.90;;;;;;;23.14;76.61;100805.63;4992628;28;20863;-85
2023/09/05 10:15:41;;;;;;;24.50;8.35;;;;;;;23.17;75.93;100800.56;4992109;28;20123;-83
2023/09/05 10:18:12;;;;;;;16.80;7.77;;;;;;;23.11;76.70;100787.66;4957560;28;20096;-82
2023/09/05 10:20:40;;;;;;;17.02;8.60;;;;;;;23.20;76.75;100793.81;4992260;28;20647;-84
2023/09/05 10:23:06;;;;;;;15.57;7.93;;;;;;;23.22;76.67;100808.19;4993437;28;20505;-84
2023/09/05 10:25:35;;;;;;;23.02;9.27;;;;;;;23.27;75.74;100824.91;4993097;28;20037;-83
2023/09/05 10:28:00;;;;;;;17.70;8.48;;;;;;;23.25;75.21;100819.59;4942273;28;20038;-83
2023/09/05 10:30:28;;;;;;;16.60;10.23;;;;;;;23.16;75.78;100803.50;4993270;28;20041;-84
2023/09/05 10:32:53;;;;;;;27.50;8.10;;;;;;;23.20;76.71;100816.63;4992360;28;20113;-85
2023/09/05 10:35:20;;;;;;;22.98;8.75;;;;;;;23.22;76.94;100831.00;4978088;28;20131;-84
2023/09/05 10:37:48;;;;;;;14.98;8.30;;;;;;;23.22;77.37;100819.16;4998427;28;20018;-83
2023/09/05 10:40:14;;;;;;;25.05;8.07;;;;;;;23.11;77.11;100804.13;5000662;28;20034;-85
2023/09/05 10:42:54;;;;;;;18.63;8.50;;;;;;;23.29;77.25;100822.81;4991630;28;20121;-84
2023/09/05 10:45:23;;;;;;;22.35;8.52;;;;;;;23.23;77.55;100804.41;4992300;28;20038;-84
2023/09/05 10:47:50;;;;;;;24.02;8.82;;;;;;;23.31;76.35;100801.47;4991995;28;20026;-84
2023/09/05 10:50:19;;;;;;;18.13;8.05;;;;;;;23.25;77.04;100805.88;4973987;28;20038;-83
2023/09/05 10:52:49;;;;;;;57.55;10.20;;;;;;;23.24;77.55;100806.91;4992678;28;20037;-85
2023/09/05 10:55:24;;;;;;;21.70;7.82;;;;;;;23.26;78.04;100804.00;4991900;28;20038;-83
2023/09/05 10:57:50;;;;;;;17.80;10.23;;;;;;;23.26;77.23;100814.97;4991855;28;20092;-83
2023/09/05 11:00:37;;;;;;;21.33;8.90;;;;;;;23.17;78.18;100792.34;4957264;28;20050;-84
2023/09/05 11:03:12;;;;;;;21.92;8.23;;;;;;;23.33;77.63;100786.50;4992574;28;20027;-85
2023/09/05 11:05:40;;;;;;;17.13;8.38;;;;;;;23.44;77.00;100800.72;4991532;28;20026;-84
2023/09/05 11:08:20;;;;;;;12.93;7.45;;;;;;;23.45;76.78;100781.31;4991698;28;20030;-85
2023/09/05 11:10:45;;;;;;;23.08;8.80;;;;;;;23.52;77.22;100793.16;4991815;28;20034;-82
2023/09/05 11:13:14;;;;;;;18.88;9.50;;;;;;;23.57;76.95;100801.66;4991504;28;20029;-84
2023/09/05 11:15:43;;;;;;;13.63;7.97;;;;;;;23.55;76.72;100820.22;4992690;28;20087;-85